Time;durP1;ratioP1;P1;durP2;ratioP2;P2;SDS_P1;SDS_P2;PMS_P1;PMS_P2;Temp;Humidity;BMP_temperature;BMP_pressure;BME280_temperature;BME280_humidity;BME280_pressure;Samples;Min_cycle;Max_cycle;Signal;HPM_P1;HPM_P2
2024/04/20 00:00:21;;;;;;;2.03;0.70;;;6.00;87.50;;;;;;5466652;26;20021;-62
2024/04/20 00:02:47;;;;;;;3.10;0.90;;;6.00;87.30;;;;;;5469508;26;20405;-61
2024/04/20 00:05:13;;;;;;;3.30;0.90;;;6.00;87.30;;;;;;5463247;26;19999;-62
2024/04/20 00:07:41;;;;;;;3.42;0.70;;;6.00;87.30;;;;;;5469004;26;19990;-61
2024/04/20 00:10:07;;;;;;;2.42;1.02;;;6.00;87.30;;;;;;5465732;26;20006;-62
2024/04/20 00:12:32;;;;;;;4.53;1.00;;;6.00;87.30;;;;;;5474753;26;19998;-61
2024/04/20 00:14:58;;;;;;;2.92;1.10;;;6.00;87.30;;;;;;5470337;26;20066;-62
2024/04/20 00:17:24;;;;;;;2.42;0.85;;;6.00;87.40;;;;;;5465444;26;20002;-60
2024/04/20 00:19:51;;;;;;;2.75;1.10;;;6.00;87.40;;;;;;5474508;26;20005;-61
2024/04/20 00:22:16;;;;;;;2.90;1.08;;;6.00;87.50;;;;;;5444287;26;20708;-62
2024/04/20 00:24:47;;;;;;;1.65;0.70;;;6.00;87.50;;;;;;5469853;26;20122;-60
2024/04/20 00:27:13;;;;;;;2.03;0.88;;;6.00;87.50;;;;;;5466999;26;19994;-61
2024/04/20 00:29:39;;;;;;;2.45;0.70;;;6.00;87.50;;;;;;5464233;26;20476;-62
2024/04/20 00:32:05;;;;;;;1.20;0.80;;;6.00;87.50;;;;;;5469099;26;20006;-62
2024/04/20 00:34:31;;;;;;;2.83;0.70;;;6.00;87.50;;;;;;5465201;26;20068;-61
2024/04/20 00:36:56;;;;;;;1.90;1.00;;;6.00;88.40;;;;;;5466215;26;20014;-62
2024/04/20 00:39:22;;;;;;;2.22;0.88;;;6.00;87.80;;;;;;5474657;26;19994;-60
2024/04/20 00:41:48;;;;;;;0.82;0.68;;;6.00;87.90;;;;;;5468227;26;19991;-61
2024/04/20 00:44:14;;;;;;;1.48;0.73;;;6.00;88.00;;;;;;5471637;26;19994;-61
2024/04/20 00:46:41;;;;;;;1.48;0.70;;;6.00;87.90;;;;;;5477043;26;20506;-61
2024/04/20 00:49:09;;;;;;;2.55;0.80;;;6.00;88.90;;;;;;5466951;26;20492;-60
2024/04/20 00:51:35;;;;;;;1.77;0.70;;;6.10;88.20;;;;;;5471348;26;20001;-60
2024/04/20 00:54:01;;;;;;;2.05;0.77;;;6.10;88.00;;;;;;5471450;26;19998;-61
2024/04/20 00:56:29;;;;;;;1.45;0.80;;;6.10;88.00;;;;;;5468646;26;20348;-60
2024/04/20 00:58:55;;;;;;;1.83;0.85;;;6.10;88.10;;;;;;5472713;26;20066;-61
2024/04/20 01:01:23;;;;;;;2.42;0.88;;;6.10;88.00;;;;;;5464063;26;20006;-61
2024/04/20 01:03:48;;;;;;;1.48;0.73;;;6.10;88.00;;;;;;5468957;26;20001;-62
2024/04/20 01:06:14;;;;;;;1.10;0.75;;;6.10;88.00;;;;;;5470212;26;19994;-62
2024/04/20 01:08:40;;;;;;;0.65;0.63;;;6.10;87.90;;;;;;5471345;26;20034;-59
2024/04/20 01:11:07;;;;;;;2.05;0.70;;;6.10;87.90;;;;;;5471643;26;20026;-60
2024/04/20 01:13:32;;;;;;;2.28;0.73;;;6.10;87.90;;;;;;5463277;26;20000;-60
2024/04/20 01:15:58;;;;;;;1.98;0.98;;;6.10;87.90;;;;;;5475021;26;19994;-60
2024/04/20 01:18:24;;;;;;;2.08;1.08;;;6.20;87.90;;;;;;5460949;26;20179;-60
2024/04/20 01:20:50;;;;;;;1.00;0.90;;;6.20;87.70;;;;;;5465125;26;20067;-59
2024/04/20 01:23:16;;;;;;;2.80;0.90;;;6.20;87.60;;;;;;5479814;26;20022;-60
2024/04/20 01:25:49;;;;;;;3.13;1.08;;;6.20;87.50;;;;;;5477879;26;20357;-61
2024/04/20 01:28:15;;;;;;;1.63;0.75;;;6.10;87.50;;;;;;5463142;26;20899;-60
2024/04/20 01:30:41;;;;;;;1.42;1.00;;;6.20;87.50;;;;;;5477597;26;20002;-60
2024/04/20 01:33:07;;;;;;;3.28;1.00;;;6.10;87.30;;;;;;5465287;26;20327;-59
2024/04/20 01:35:33;;;;;;;1.10;1.00;;;6.10;87.30;;;;;;5474608;26;20056;-60
2024/04/20 01:37:58;;;;;;;3.45;1.20;;;6.10;87.20;;;;;;5476389;26;20586;-59
2024/04/20 01:40:24;;;;;;;2.13;1.20;;;6.10;87.10;;;;;;5433486;26;20067;-60
2024/04/20 01:42:50;;;;;;;2.40;1.05;;;6.10;87.20;;;;;;5471641;26;20003;-59
2024/04/20 01:45:15;;;;;;;3.30;1.38;;;6.10;87.10;;;;;;5474333;26;20009;-61
2024/04/20 01:47:41;;;;;;;2.35;1.08;;;6.00;87.00;;;;;;5467594;26;20001;-60
2024/04/20 01:50:07;;;;;;;4.90;1.25;;;6.00;87.00;;;;;;5476537;26;20005;-60
2024/04/20 01:52:33;;;;;;;2.80;1.20;;;6.00;87.00;;;;;;5471955;26;19991;-61
2024/04/20 01:54:59;;;;;;;1.52;1.13;;;6.00;87.00;;;;;;5473574;26;20075;-60
2024/04/20 01:57:24;;;;;;;3.25;1.30;;;5.90;87.00;;;;;;5471354;26;20075;-59
2024/04/20 01:59:50;;;;;;;2.35;1.10;;;5.90;87.20;;;;;;5470921;26;20347;-61
2024/04/20 02:02:16;;;;;;;2.33;1.27;;;5.80;87.10;;;;;;5475725;26;19994;-60
2024/04/20 02:04:41;;;;;;;3.40;1.30;;;5.80;87.20;;;;;;5472696;26;20416;-60
2024/04/20 02:07:07;;;;;;;2.35;1.33;;;5.80;87.30;;;;;;5475320;26;20009;-61
2024/04/20 02:09:33;;;;;;;2.60;1.20;;;5.80;87.30;;;;;;5479899;26;20005;-60
2024/04/20 02:11:59;;;;;;;5.43;1.27;;;5.70;87.20;;;;;;5439386;26;20001;-61
2024/04/20 02:14:24;;;;;;;1.70;1.30;;;5.70;87.20;;;;;;5469559;26;20477;-61
2024/04/20 02:16:50;;;;;;;3.72;1.30;;;5.70;87.20;;;;;;5478299;26;20002;-60
2024/04/20 02:19:16;;;;;;;6.25;1.30;;;5.60;87.20;;;;;;5471985;26;20019;-60
2024/04/20 02:21:42;;;;;;;2.00;1.30;;;5.60;87.30;;;;;;5472901;26;20009;-61
2024/04/20 02:24:07;;;;;;;4.13;1.38;;;5.60;87.30;;;;;;5478030;26;19998;-61
2024/04/20 02:26:34;;;;;;;4.82;1.90;;;5.50;87.20;;;;;;5473134;26;20129;-61
2024/04/20 02:29:00;;;;;;;6.03;1.90;;;5.50;87.20;;;;;;5465425;26;20029;-60
2024/04/20 02:31:27;;;;;;;4.55;1.95;;;5.50;87.20;;;;;;5472819;26;20038;-60
2024/04/20 02:33:53;;;;;;;2.90;1.80;;;5.50;87.10;;;;;;5476604;26;20005;-61
2024/04/20 02:36:18;;;;;;;3.58;1.90;;;5.40;87.00;;;;;;5433763;26;20631;-60
2024/04/20 02:38:44;;;;;;;4.20;1.63;;;5.40;87.00;;;;;;5465028;26;20051;-60
2024/04/20 02:41:10;;;;;;;2.85;1.55;;;5.40;87.10;;;;;;5478985;26;20491;-61
2024/04/20 02:43:35;;;;;;;4.10;1.65;;;5.30;87.10;;;;;;5468192;26;20028;-60
2024/04/20 02:46:01;;;;;;;2.17;1.48;;;5.30;87.30;;;;;;5467956;26;20406;-59
2024/04/20 02:48:27;;;;;;;5.85;1.80;;;5.30;87.70;;;;;;5477070;26;20010;-60
2024/04/20 02:50:52;;;;;;;4.65;1.70;;;5.20;87.90;;;;;;5471581;26;20009;-60
2024/04/20 02:53:18;;;;;;;6.57;1.60;;;5.20;88.10;;;;;;5475981;26;20001;-61
2024/04/20 02:55:43;;;;;;;3.60;1.80;;;5.20;88.20;;;;;;5468372;26;20460;-62
2024/04/20 02:58:10;;;;;;;4.78;1.75;;;5.20;88.20;;;;;;5469354;26;19991;-62
2024/04/20 03:00:35;;;;;;;10.27;1.80;;;5.10;88.30;;;;;;5465857;26;19999;-61
2024/04/20 03:03:01;;;;;;;2.55;1.85;;;5.10;88.30;;;;;;5467642;26;20003;-61
2024/04/20 03:05:27;;;;;;;4.93;1.95;;;5.10;88.40;;;;;;5468969;26;20006;-61
2024/04/20 03:07:52;;;;;;;3.47;1.70;;;5.10;88.40;;;;;;5480611;26;19998;-62
2024/04/20 03:10:18;;;;;;;5.28;1.70;;;5.00;88.40;;;;;;5470784;26;20334;-61
2024/04/20 03:12:44;;;;;;;5.50;2.03;;;5.00;88.50;;;;;;5468576;26;20446;-61
2024/04/20 03:15:09;;;;;;;5.38;2.10;;;5.00;88.80;;;;;;5465897;26;20003;-61
2024/04/20 03:17:35;;;;;;;2.30;1.60;;;5.00;89.00;;;;;;5467935;26;20010;-61
2024/04/20 03:20:01;;;;;;;4.03;1.73;;;4.90;89.10;;;;;;5460215;26;20330;-62
2024/04/20 03:22:26;;;;;;;5.45;2.15;;;4.90;89.40;;;;;;5477850;26;20079;-60
2024/04/20 03:24:52;;;;;;;9.07;2.05;;;4.90;89.60;;;;;;5474198;26;20327;-62
2024/04/20 03:27:17;;;;;;;2.85;1.75;;;4.90;89.60;;;;;;5462593;26;20022;-62
2024/04/20 03:29:43;;;;;;;4.90;2.10;;;4.90;89.80;;;;;;5472021;26;20066;-62
2024/04/20 03:32:08;;;;;;;4.03;1.80;;;4.90;90.00;;;;;;5470638;26;20092;-62
2024/04/20 03:34:34;;;;;;;4.82;1.70;;;4.90;90.10;;;;;;5465799;26;20005;-60
2024/04/20 03:36:59;;;;;;;3.78;2.10;;;4.90;90.50;;;;;;5469560;26;20415;-62
2024/04/20 03:39:25;;;;;;;4.97;2.50;;;4.90;90.20;;;;;;5474560;26;19998;-62
2024/04/20 03:41:51;;;;;;;4.20;2.20;;;4.90;90.30;;;;;;5456714;26;20002;-62
2024/04/20 03:44:16;;;;;;;3.35;1.98;;;5.00;90.30;;;;;;5470976;26;20017;-61
2024/04/20 03:46:42;;;;;;;6.32;2.38;;;5.00;90.30;;;;;;5468631;26;19990;-61
2024/04/20 03:49:07;;;;;;;7.10;2.10;;;5.00;90.30;;;;;;5468217;26;20026;-60
2024/04/20 03:51:33;;;;;;;6.15;2.22;;;5.00;90.30;;;;;;5472748;26;19990;-62
2024/04/20 03:54:02;;;;;;;3.58;1.50;;;5.00;90.40;;;;;;5472620;26;20013;-62
2024/04/20 03:56:28;;;;;;;3.30;1.58;;;5.00;90.30;;;;;;5475366;26;20002;-62
2024/04/20 03:58:54;;;;;;;6.90;1.77;;;5.10;90.70;;;;;;5471603;26;20002;-62
2024/04/20 04:01:19;;;;;;;7.90;1.70;;;5.10;90.30;;;;;;5468618;26;20063;-62
2024/04/20 04:03:45;;;;;;;4.65;1.60;;;5.10;90.30;;;;;;5466601;26;20468;-62
2024/04/20 04:06:11;;;;;;;5.72;1.80;;;5.10;90.20;;;;;;5468840;26;20005;-62
2024/04/20 04:08:36;;;;;;;3.97;1.92;;;5.10;90.20;;;;;;5467141;26;20349;-61
2024/04/20 04:11:02;;;;;;;5.15;1.67;;;5.10;90.20;;;;;;5476123;26;20075;-61
2024/04/20 04:13:27;;;;;;;3.45;1.70;;;5.10;90.20;;;;;;5469461;26;20469;-63
2024/04/20 04:15:53;;;;;;;3.72;1.80;;;5.10;90.20;;;;;;5471905;26;20383;-62
2024/04/20 04:18:21;;;;;;;5.32;1.77;;;5.10;90.20;;;;;;5463882;26;20010;-62
2024/04/20 04:20:47;;;;;;;4.75;2.03;;;5.10;90.10;;;;;;5462382;26;19997;-62
2024/04/20 04:23:13;;;;;;;4.97;2.10;;;5.20;90.20;;;;;;5470736;26;22489;-60
2024/04/20 04:25:38;;;;;;;6.75;1.80;;;5.20;90.20;;;;;;5470019;26;20473;-61
2024/04/20 04:28:04;;;;;;;4.70;1.90;;;5.20;90.10;;;;;;5476768;26;20465;-60
2024/04/20 04:30:32;;;;;;;6.45;1.60;;;5.30;90.10;;;;;;5464646;26;20022;-62
2024/04/20 04:32:58;;;;;;;4.13;1.58;;;5.30;90.00;;;;;;5474185;26;19994;-61
2024/04/20 04:35:26;;;;;;;3.40;1.60;;;5.30;90.00;;;;;;5462898;26;20009;-62
2024/04/20 04:37:52;;;;;;;2.47;1.40;;;5.40;90.00;;;;;;5472462;26;20014;-60
2024/04/20 04:40:18;;;;;;;3.75;1.33;;;5.40;89.80;;;;;;5444208;26;19994;-61
2024/04/20 04:42:44;;;;;;;3.22;1.50;;;5.50;89.70;;;;;;5468049;26;20005;-62
2024/04/20 04:45:09;;;;;;;4.85;1.83;;;5.50;89.40;;;;;;5466410;26;20001;-62
2024/04/20 04:47:35;;;;;;;8.57;2.00;;;5.50;89.30;;;;;;5473615;26;20018;-62
2024/04/20 04:50:00;;;;;;;5.68;1.95;;;5.50;89.10;;;;;;5458636;26;20002;-61
2024/04/20 04:52:26;;;;;;;3.67;1.55;;;5.60;89.30;;;;;;5468140;26;19994;-60
2024/04/20 04:54:51;;;;;;;2.65;1.25;;;5.50;89.20;;;;;;5466580;26;20017;-60
2024/04/20 04:57:17;;;;;;;4.70;1.50;;;5.50;89.10;;;;;;5471639;26;20126;-61
2024/04/20 04:59:43;;;;;;;2.67;1.52;;;5.60;89.30;;;;;;5467594;26;19998;-61
2024/04/20 05:02:08;;;;;;;6.15;1.90;;;5.60;89.30;;;;;;5460389;26;20384;-61
2024/04/20 05:04:34;;;;;;;5.53;1.50;;;5.60;89.30;;;;;;5466592;26;20009;-62
2024/04/20 05:07:00;;;;;;;4.32;1.60;;;5.60;89.20;;;;;;5468817;26;20009;-61
2024/04/20 05:09:25;;;;;;;4.35;1.80;;;5.60;89.10;;;;;;5462951;26;20006;-62
2024/04/20 05:11:51;;;;;;;4.20;1.45;;;5.70;89.10;;;;;;5465717;26;19994;-62
2024/04/20 05:14:17;;;;;;;3.05;1.17;;;5.70;89.10;;;;;;5467823;26;20006;-61
2024/04/20 05:16:42;;;;;;;4.88;1.23;;;5.70;89.10;;;;;;5433380;26;20014;-62
2024/04/20 05:19:08;;;;;;;3.55;1.40;;;5.70;89.10;;;;;;5461222;26;20026;-60
2024/04/20 05:21:34;;;;;;;4.65;1.38;;;5.70;89.10;;;;;;5461085;26;19998;-61
2024/04/20 05:24:00;;;;;;;3.20;1.30;;;5.70;89.20;;;;;;5465067;26;20005;-60
2024/04/20 05:26:28;;;;;;;5.18;2.17;;;5.70;89.10;;;;;;5462994;26;20021;-61
2024/04/20 05:28:54;;;;;;;4.60;2.00;;;5.70;89.10;;;;;;5466256;26;20022;-62
2024/04/20 05:31:20;;;;;;;3.65;1.77;;;5.70;89.10;;;;;;5464539;26;19998;-62
2024/04/20 05:33:45;;;;;;;4.05;1.50;;;5.80;89.30;;;;;;5462019;26;19998;-62
2024/04/20 05:36:11;;;;;;;3.22;1.20;;;5.80;89.30;;;;;;5466021;26;19998;-62
2024/04/20 05:38:36;;;;;;;4.13;1.25;;;5.80;89.20;;;;;;5464315;26;19990;-62
2024/04/20 05:41:06;;;;;;;5.32;1.70;;;5.90;89.10;;;;;;5456450;26;20043;-61
2024/04/20 05:43:32;;;;;;;3.40;1.35;;;5.90;88.90;;;;;;5447038;26;20077;-62
2024/04/20 05:45:58;;;;;;;2.85;1.35;;;5.90;88.90;;;;;;5438996;26;20020;-60
2024/04/20 05:48:24;;;;;;;2.33;1.25;;;6.00;88.90;;;;;;5445315;26;20003;-62
2024/04/20 05:50:49;;;;;;;3.53;1.63;;;6.00;88.70;;;;;;5446994;26;20124;-62
2024/04/20 05:53:15;;;;;;;3.60;1.08;;;5.90;88.60;;;;;;5447274;26;19998;-62
2024/04/20 05:55:43;;;;;;;2.05;1.15;;;5.90;88.60;;;;;;5439559;26;20016;-61
2024/04/20 05:58:09;;;;;;;1.92;1.27;;;6.00;88.60;;;;;;5444845;26;20073;-62
2024/04/20 06:00:35;;;;;;;2.72;1.40;;;6.00;88.40;;;;;;5443102;26;20002;-59
2024/04/20 06:03:01;;;;;;;2.15;1.27;;;6.00;88.50;;;;;;5435378;26;20065;-62
2024/04/20 06:05:27;;;;;;;5.35;1.40;;;6.00;88.70;;;;;;5445129;26;20121;-59
2024/04/20 06:07:52;;;;;;;2.33;1.20;;;6.00;88.70;;;;;;5446533;26;20033;-60
2024/04/20 06:10:18;;;;;;;3.78;1.40;;;6.10;88.60;;;;;;5422475;26;19998;-62
2024/04/20 06:12:44;;;;;;;1.48;1.15;;;6.10;88.40;;;;;;5445720;26;20015;-62
2024/04/20 06:15:09;;;;;;;3.67;1.33;;;6.10;88.40;;;;;;5461592;26;19995;-62
2024/04/20 06:17:35;;;;;;;2.40;1.15;;;6.10;88.40;;;;;;5460507;26;20009;-62
2024/04/20 06:20:00;;;;;;;2.50;1.45;;;6.20;88.40;;;;;;5450022;26;20002;-62
2024/04/20 06:22:26;;;;;;;2.75;1.20;;;6.20;88.50;;;;;;5450412;26;20033;-61
2024/04/20 06:24:53;;;;;;;4.30;1.23;;;6.20;88.50;;;;;;5447689;26;20469;-62
2024/04/20 06:27:22;;;;;;;3.80;1.60;;;6.20;88.40;;;;;;5449434;26;19997;-62
2024/04/20 06:29:48;;;;;;;2.67;1.52;;;6.20;88.30;;;;;;5455542;26;20853;-61
2024/04/20 06:32:14;;;;;;;3.13;1.58;;;6.30;88.40;;;;;;5419070;26;20450;-62
2024/04/20 06:34:40;;;;;;;3.13;1.70;;;6.30;88.40;;;;;;5447813;26;20014;-60
2024/04/20 06:37:09;;;;;;;3.40;1.73;;;6.30;88.50;;;;;;5429875;26;20038;-61
2024/04/20 06:39:35;;;;;;;3.00;1.60;;;6.30;88.60;;;;;;5457857;26;19999;-60
2024/04/20 06:42:01;;;;;;;3.38;1.60;;;6.40;88.50;;;;;;5459235;26;21758;-62
2024/04/20 06:44:27;;;;;;;2.67;1.70;;;6.40;88.40;;;;;;5453734;26;19998;-62
2024/04/20 06:46:53;;;;;;;2.65;1.50;;;6.40;88.20;;;;;;5461787;26;20009;-62
2024/04/20 06:49:18;;;;;;;2.95;1.45;;;6.40;87.80;;;;;;5471490;26;20013;-62
2024/04/20 06:51:44;;;;;;;2.45;1.23;;;6.40;87.70;;;;;;5458829;26;19990;-61
2024/04/20 06:54:10;;;;;;;3.28;1.27;;;6.40;87.00;;;;;;5450672;26;20021;-61
2024/04/20 06:56:35;;;;;;;3.83;1.58;;;6.30;86.60;;;;;;5459221;26;20125;-60
2024/04/20 06:59:01;;;;;;;2.47;1.45;;;6.20;86.80;;;;;;5457817;26;20002;-61
2024/04/20 07:01:26;;;;;;;2.72;1.60;;;6.20;87.20;;;;;;5455485;26;19998;-61
2024/04/20 07:03:52;;;;;;;1.40;1.00;;;6.20;87.30;;;;;;5475438;26;20005;-62
2024/04/20 07:06:18;;;;;;;2.47;1.20;;;6.10;86.60;;;;;;5469738;26;19994;-62
2024/04/20 07:08:43;;;;;;;1.58;1.10;;;6.00;87.00;;;;;;5455734;26;20330;-62
2024/04/20 07:11:09;;;;;;;2.13;0.98;;;6.00;87.30;;;;;;5468083;26;19995;-62
2024/04/20 07:13:40;;;;;;;1.30;0.90;;;5.90;87.30;;;;;;5470301;26;20414;-61
2024/04/20 07:16:06;;;;;;;2.55;1.38;;;5.90;87.40;;;;;;5473764;26;20002;-62
2024/04/20 07:18:31;;;;;;;1.10;0.70;;;5.80;87.50;;;;;;5465858;26;20009;-62
2024/04/20 07:21:03;;;;;;;1.15;0.90;;;5.80;87.70;;;;;;5473730;26;19990;-62
2024/04/20 07:23:28;;;;;;;1.38;0.88;;;5.80;88.00;;;;;;5459411;26;19990;-62
2024/04/20 07:26:01;;;;;;;1.35;1.23;;;5.80;88.30;;;;;;5474424;26;20001;-62
2024/04/20 07:28:28;;;;;;;2.63;1.27;;;5.80;88.70;;;;;;5472408;26;20010;-61
2024/04/20 07:30:53;;;;;;;1.50;1.40;;;5.90;89.00;;;;;;5461166;26;20334;-62
2024/04/20 07:33:19;;;;;;;2.08;1.30;;;5.90;89.10;;;;;;5472415;26;20010;-62
2024/04/20 07:35:45;;;;;;;3.65;1.60;;;5.90;89.10;;;;;;5465621;26;20018;-61
2024/04/20 07:38:11;;;;;;;2.22;1.40;;;6.00;89.30;;;;;;5474199;26;20072;-61
2024/04/20 07:40:36;;;;;;;4.70;1.60;;;6.00;89.10;;;;;;5482594;26;20062;-61
2024/04/20 07:43:03;;;;;;;1.75;1.20;;;6.00;88.60;;;;;;5474234;26;20040;-62
2024/04/20 07:45:29;;;;;;;3.72;1.85;;;6.10;87.90;;;;;;5469872;26;20012;-62
2024/04/20 07:47:55;;;;;;;4.15;1.60;;;6.10;86.90;;;;;;5473658;26;19999;-62
2024/04/20 07:50:21;;;;;;;3.40;1.60;;;6.20;87.30;;;;;;5467068;26;20071;-63
2024/04/20 07:52:48;;;;;;;3.72;1.88;;;6.20;87.00;;;;;;5474034;26;19994;-63
2024/04/20 07:55:14;;;;;;;5.05;1.60;;;6.20;86.30;;;;;;5473122;26;20074;-62
2024/04/20 07:57:40;;;;;;;3.92;1.50;;;6.30;86.30;;;;;;5463113;26;20342;-62
2024/04/20 08:00:07;;;;;;;1.73;1.63;;;6.30;86.00;;;;;;5471811;26;20345;-62
2024/04/20 08:02:32;;;;;;;3.65;1.80;;;6.30;85.70;;;;;;5481931;26;20002;-63
2024/04/20 08:04:58;;;;;;;3.97;1.58;;;6.30;85.40;;;;;;5471238;26;20338;-61
2024/04/20 08:07:23;;;;;;;2.30;1.42;;;6.40;85.10;;;;;;5470156;26;19998;-62
2024/04/20 08:09:49;;;;;;;3.58;1.70;;;6.40;84.50;;;;;;5473325;26;20324;-62
2024/04/20 08:12:15;;;;;;;3.35;1.63;;;6.40;84.80;;;;;;5464516;26;19999;-62
2024/04/20 08:14:41;;;;;;;4.43;1.70;;;6.40;85.30;;;;;;5476623;26;20009;-62
2024/04/20 08:17:06;;;;;;;2.95;1.60;;;6.40;85.50;;;;;;5474131;26;20010;-61
2024/04/20 08:19:32;;;;;;;6.05;1.70;;;6.50;84.80;;;;;;5468376;26;19990;-62
2024/04/20 08:21:57;;;;;;;4.03;1.77;;;6.50;84.40;;;;;;5474575;26;20445;-62
2024/04/20 08:24:23;;;;;;;4.78;1.70;;;6.50;84.20;;;;;;5476176;26;19990;-62
2024/04/20 08:26:49;;;;;;;2.90;1.60;;;6.50;83.90;;;;;;5469158;26;20005;-62
2024/04/20 08:29:14;;;;;;;4.60;1.67;;;6.60;84.00;;;;;;5472353;26;20516;-63
2024/04/20 08:31:40;;;;;;;1.60;1.38;;;6.60;83.30;;;;;;5476415;26;20345;-61
2024/04/20 08:34:05;;;;;;;2.97;1.40;;;6.60;83.20;;;;;;5463451;26;20006;-62
2024/04/20 08:36:32;;;;;;;3.90;1.60;;;6.70;83.40;;;;;;5478781;26;20009;-62
2024/04/20 08:38:57;;;;;;;2.75;1.58;;;6.70;82.80;;;;;;5475093;26;20009;-62
2024/04/20 08:41:25;;;;;;;4.38;1.48;;;6.70;82.70;;;;;;5467566;26;20046;-62
2024/04/20 08:43:52;;;;;;;2.85;1.63;;;6.70;82.70;;;;;;5473551;26;20005;-61
2024/04/20 08:46:19;;;;;;;3.95;1.90;;;6.80;83.60;;;;;;5470406;26;19994;-62
2024/04/20 08:48:47;;;;;;;3.50;2.00;;;6.80;84.10;;;;;;5476056;26;20009;-62
2024/04/20 08:51:13;;;;;;;2.25;1.70;;;6.90;83.60;;;;;;5475035;26;19994;-61
2024/04/20 08:53:44;;;;;;;3.38;1.90;;;6.90;83.60;;;;;;5478794;26;19998;-62
2024/04/20 08:56:10;;;;;;;2.97;2.15;;;7.00;83.40;;;;;;5471834;26;20013;-62
2024/04/20 08:58:36;;;;;;;3.70;1.63;;;7.10;81.90;;;;;;5463498;26;19995;-63
2024/04/20 09:01:03;;;;;;;4.45;1.75;;;7.10;81.30;;;;;;5469628;26;20006;-63
2024/04/20 09:03:29;;;;;;;3.78;1.40;;;7.20;80.10;;;;;;5470123;26;20072;-62
2024/04/20 09:05:56;;;;;;;5.35;1.90;;;7.20;79.90;;;;;;5467458;26;20454;-62
2024/04/20 09:08:23;;;;;;;2.28;1.50;;;7.20;80.00;;;;;;5470461;26;20138;-62
2024/04/20 09:10:49;;;;;;;1.77;1.30;;;7.30;80.10;;;;;;5471782;26;20460;-61
2024/04/20 09:13:15;;;;;;;2.42;1.48;;;7.30;79.40;;;;;;5465652;26;19998;-61
2024/04/20 09:15:47;;;;;;;2.72;1.50;;;7.30;78.20;;;;;;5473542;26;19994;-62
2024/04/20 09:18:14;;;;;;;3.53;1.70;;;7.30;76.90;;;;;;5472963;26;19994;-62
2024/04/20 09:20:40;;;;;;;2.38;1.35;;;7.30;77.80;;;;;;5472150;26;20043;-62
2024/04/20 09:23:07;;;;;;;2.00;1.17;;;7.30;77.00;;;;;;5474842;26;20066;-61
2024/04/20 09:25:37;;;;;;;2.13;1.50;;;7.30;76.50;;;;;;5477799;26;20010;-62
2024/04/20 09:28:05;;;;;;;2.80;1.33;;;7.30;75.30;;;;;;5466097;26;20017;-62
2024/04/20 09:30:31;;;;;;;2.58;1.30;;;7.30;75.40;;;;;;5475075;26;20373;-62
2024/04/20 09:32:57;;;;;;;3.85;1.52;;;7.30;75.90;;;;;;5468477;26;20006;-62
2024/04/20 09:35:22;;;;;;;3.28;1.30;;;7.30;75.20;;;;;;5462854;26;20014;-62
2024/04/20 09:37:52;;;;;;;3.75;1.30;;;7.40;75.30;;;;;;5477582;26;20001;-63
2024/04/20 09:40:18;;;;;;;3.72;1.30;;;7.30;75.50;;;;;;5466806;26;20018;-62
2024/04/20 09:42:46;;;;;;;2.50;1.42;;;7.30;76.40;;;;;;5474401;26;20010;-62
2024/04/20 09:45:12;;;;;;;4.93;1.40;;;7.40;75.90;;;;;;5482776;26;19998;-62
2024/04/20 09:47:39;;;;;;;2.40;1.13;;;7.40;75.80;;;;;;5484526;26;20013;-62
2024/04/20 09:50:10;;;;;;;6.88;1.10;;;7.40;75.60;;;;;;5478559;26;20034;-63
2024/04/20 09:52:50;;;;;;;4.28;0.98;;;7.40;75.00;;;;;;5463115;26;20027;-62
2024/04/20 09:55:28;;;;;;;2.63;1.40;;;7.50;72.30;;;;;;5478004;26;20484;-63
2024/04/20 09:57:55;;;;;;;3.92;1.15;;;7.50;72.90;;;;;;5478052;26;20029;-62
2024/04/20 10:00:22;;;;;;;3.95;1.10;;;7.50;72.50;;;;;;5475391;26;20010;-62
2024/04/20 10:02:48;;;;;;;3.95;0.93;;;7.60;73.10;;;;;;5471048;26;19998;-62
2024/04/20 10:05:15;;;;;;;2.47;1.65;;;7.70;72.40;;;;;;5465223;26;19998;-63
2024/04/20 10:07:44;;;;;;;2.22;0.98;;;7.80;72.00;;;;;;5443430;26;20066;-63
2024/04/20 10:10:12;;;;;;;2.83;1.27;;;7.90;72.30;;;;;;5465121;26;20083;-61
2024/04/20 10:12:42;;;;;;;1.77;1.05;;;7.90;71.30;;;;;;5470703;26;20013;-61
2024/04/20 10:15:07;;;;;;;1.27;1.10;;;8.00;71.40;;;;;;5474877;26;20006;-61
2024/04/20 10:17:33;;;;;;;2.20;1.20;;;8.00;71.30;;;;;;5482644;26;20037;-62
2024/04/20 10:19:59;;;;;;;1.73;1.00;;;8.10;71.60;;;;;;5479009;26;19991;-61
2024/04/20 10:22:25;;;;;;;2.67;1.52;;;8.10;71.30;;;;;;5477689;26;20038;-62
2024/04/20 10:24:55;;;;;;;1.33;0.90;;;8.20;71.10;;;;;;5464889;26;20127;-62
2024/04/20 10:27:27;;;;;;;2.67;1.08;;;8.20;71.80;;;;;;5476427;26;19990;-63
2024/04/20 10:30:16;;;;;;;1.63;1.00;;;8.30;69.30;;;;;;5478772;26;20006;-62
2024/04/20 10:32:42;;;;;;;2.45;1.33;;;8.30;69.00;;;;;;5458217;26;20003;-62
2024/04/20 10:35:08;;;;;;;2.75;1.05;;;8.30;70.30;;;;;;5468134;26;19991;-62
2024/04/20 10:37:37;;;;;;;2.60;1.13;;;8.30;67.90;;;;;;5482037;26;20330;-62
2024/04/20 10:40:13;;;;;;;1.70;1.25;;;8.40;68.00;;;;;;5462729;26;20018;-62
2024/04/20 10:42:43;;;;;;;1.70;1.20;;;8.40;68.50;;;;;;5465381;26;20028;-62
2024/04/20 10:45:12;;;;;;;2.15;1.25;;;8.40;69.20;;;;;;5477546;26;20864;-61
2024/04/20 10:47:38;;;;;;;3.97;1.30;;;8.50;68.80;;;;;;5450216;26;20005;-63
2024/04/20 10:50:08;;;;;;;2.03;1.10;;;8.50;68.10;;;;;;5470006;26;20013;-62
2024/04/20 10:52:34;;;;;;;1.83;0.95;;;8.60;69.60;;;;;;5475493;26;19995;-62
2024/04/20 10:54:59;;;;;;;3.17;1.48;;;8.60;68.40;;;;;;5464535;26;20040;-63
2024/04/20 10:57:28;;;;;;;1.45;1.10;;;8.70;68.60;;;;;;5474169;26;20002;-62
2024/04/20 10:59:54;;;;;;;2.05;1.20;;;8.70;67.60;;;;;;5466647;26;20078;-61
2024/04/20 11:02:20;;;;;;;1.42;1.25;;;8.80;67.80;;;;;;5474604;26;19994;-62
2024/04/20 11:04:46;;;;;;;4.07;1.50;;;8.80;67.40;;;;;;5479663;26;20009;-61
2024/04/20 11:07:18;;;;;;;2.25;1.40;;;8.80;67.10;;;;;;5475395;26;19995;-62
2024/04/20 11:09:46;;;;;;;2.22;1.20;;;8.80;67.30;;;;;;5476019;26;20013;-61
2024/04/20 11:12:12;;;;;;;2.17;1.17;;;8.80;68.10;;;;;;5481885;26;20006;-62
2024/04/20 11:14:38;;;;;;;2.90;1.23;;;8.80;67.40;;;;;;5435674;26;20053;-61
2024/04/20 11:17:04;;;;;;;1.83;1.33;;;8.80;66.90;;;;;;5461632;26;20002;-62
2024/04/20 11:19:33;;;;;;;2.65;1.10;;;8.80;66.40;;;;;;5472227;26;20005;-62
2024/04/20 11:21:59;;;;;;;2.65;1.45;;;8.80;66.40;;;;;;5479383;26;20032;-62
2024/04/20 11:24:29;;;;;;;2.97;1.45;;;8.80;67.10;;;;;;5478939;26;20329;-62
2024/04/20 11:27:09;;;;;;;1.45;1.20;;;8.80;67.80;;;;;;5481736;26;20013;-62
2024/04/20 11:29:35;;;;;;;2.00;1.30;;;8.90;64.30;;;;;;5467526;26;20000;-62
2024/04/20 11:32:02;;;;;;;1.27;0.98;;;9.00;65.80;;;;;;5476526;26;19994;-63
2024/04/20 11:34:27;;;;;;;2.33;1.30;;;9.00;66.70;;;;;;5473084;26;20396;-62
2024/04/20 11:36:53;;;;;;;3.13;1.23;;;9.10;66.00;;;;;;5480018;26;20008;-63
2024/04/20 11:39:19;;;;;;;1.58;1.00;;;9.10;65.40;;;;;;5467007;26;20463;-62
2024/04/20 11:41:45;;;;;;;2.78;1.15;;;9.20;66.70;;;;;;5471295;26;20387;-63
2024/04/20 11:44:12;;;;;;;5.38;1.40;;;9.20;64.80;;;;;;5459613;26;20002;-62
2024/04/20 11:46:39;;;;;;;1.92;1.40;;;9.30;63.40;;;;;;5467613;26;20005;-63
2024/04/20 11:49:15;;;;;;;2.50;1.20;;;9.30;65.00;;;;;;5476381;26;20022;-63
2024/04/20 11:54:25;;;;;;;2.83;1.30;;;9.30;65.80;;;;;;5464452;26;20342;-61
2024/04/20 11:56:54;;;;;;;2.08;1.38;;;9.30;66.50;;;;;;5465995;26;19997;-63
2024/04/20 11:59:20;;;;;;;5.78;1.63;;;9.30;67.00;;;;;;5467997;26;20006;-62
2024/04/20 12:01:45;;;;;;;2.08;1.50;;;9.30;66.50;;;;;;5473132;26;20458;-63
2024/04/20 12:04:14;;;;;;;1.35;1.25;;;9.30;66.20;;;;;;5469700;26;20035;-63
2024/04/20 12:06:40;;;;;;;3.92;1.60;;;9.30;66.10;;;;;;5472131;26;19994;-63
2024/04/20 12:09:06;;;;;;;3.78;1.30;;;9.20;65.50;;;;;;5478764;26;19998;-62
2024/04/20 12:11:32;;;;;;;4.82;1.52;;;9.20;65.70;;;;;;5470325;26;20464;-63
2024/04/20 12:13:58;;;;;;;1.83;1.60;;;9.10;66.20;;;;;;5475872;26;20003;-63
2024/04/20 12:16:26;;;;;;;3.75;1.35;;;9.00;66.90;;;;;;5472195;26;20001;-63
2024/04/20 12:18:52;;;;;;;3.53;1.80;;;9.00;66.60;;;;;;5469631;26;19998;-62
2024/04/20 12:21:18;;;;;;;2.78;1.65;;;9.00;65.80;;;;;;5473972;26;20431;-62
2024/04/20 12:23:44;;;;;;;2.85;1.80;;;9.00;66.60;;;;;;5475679;26;20489;-63
2024/04/20 12:26:10;;;;;;;3.72;1.77;;;9.00;67.40;;;;;;5463679;26;19999;-63
2024/04/20 12:28:36;;;;;;;3.20;1.58;;;9.00;65.80;;;;;;5468514;26;19990;-63
2024/04/20 12:31:07;;;;;;;2.47;1.55;;;9.00;66.70;;;;;;5464591;26;20450;-63
2024/04/20 12:33:33;;;;;;;3.13;1.80;;;9.00;65.20;;;;;;5464873;26;19998;-63
2024/04/20 12:35:58;;;;;;;2.00;1.80;;;9.00;66.50;;;;;;5464339;26;20009;-62
2024/04/20 12:38:25;;;;;;;3.22;1.90;;;9.10;66.70;;;;;;5467913;26;20013;-62
2024/04/20 12:40:51;;;;;;;4.90;2.10;;;9.20;67.50;;;;;;5464808;26;20408;-63
2024/04/20 12:43:17;;;;;;;2.47;1.60;;;9.30;66.30;;;;;;5472651;26;20129;-63
2024/04/20 12:45:42;;;;;;;2.97;1.42;;;9.40;65.50;;;;;;5466408;26;19990;-63
2024/04/20 12:48:08;;;;;;;3.22;1.65;;;9.50;64.30;;;;;;5457348;26;20348;-63
2024/04/20 12:50:34;;;;;;;4.75;1.40;;;9.60;62.90;;;;;;5475227;26;20034;-62
2024/04/20 12:53:00;;;;;;;3.35;1.70;;;9.60;62.70;;;;;;5459591;26;20357;-63
2024/04/20 12:55:26;;;;;;;5.75;1.45;;;9.60;62.70;;;;;;5473993;26;20602;-63